首页
METAR-TAF:

METAR-TAF

机场 :

彭萨科拉, 佛罗里达州, 美国

纬度: 30-21-22N, 经度: 087-19-24W, 海拔: 9米

当前天气观测

该预报发布于1小时和3分钟前的19:56 UTC
风速9节,风向
温度 21°C
湿度 18%
气压 1027 hPa
能見度: 16.1公里
散云层高于25000英尺

METAR: KNPA 071956Z 01009KT 10SM SCT250 21/M04 A3032 RMK AO2 SLP267 T02061044 $

时间: 14:59 (20:59 UTC)

预报

预报有效从07日的 15点(UTC)到 08日的 15点(UTC)
风速11节,风向东北
能见度10公里或以上
天空无云
从 08日的 0000点(UTC)
风速5节,风向多变
能见度10公里或以上
天空无云

TAF: KNPA 0715/0815 04011KT 9999 SKC QNH3030INS FM080000 VRB05KT 9999 SKC QNH3035INS T18/0720Z T09/0811Z FN00235

超过4000个机场的气象观测和天气预报(METAR&TAF报告)。

可查询的气象台以黄色和红色小点在地图上表示。

将鼠标移到小点上方,可查看气象台名称。

然后点击查看天气观测和预报。

如需切换地图:点击带黑十字的绿色按钮放大地图;点击带横线的绿色按钮缩小地图;或者点击绿色箭头查看邻近地区的地图。


METAR-TAF: